sensor_id;sensor_type;location;lat;lon;timestamp;P1;durP1;ratioP1;P2;durP2;ratioP2
56860;SDS011;42744;51.094;3.490;2022-12-18T00:01:24;65.30;;;32.00;;
56860;SDS011;42744;51.094;3.490;2022-12-18T00:03:51;74.90;;;31.83;;
56860;SDS011;42744;51.094;3.490;2022-12-18T00:06:18;65.30;;;33.17;;
56860;SDS011;42744;51.094;3.490;2022-12-18T00:08:45;67.97;;;33.13;;
56860;SDS011;42744;51.094;3.490;2022-12-18T00:11:16;64.87;;;31.30;;
56860;SDS011;42744;51.094;3.490;2022-12-18T00:13:43;73.30;;;32.50;;
56860;SDS011;42744;51.094;3.490;2022-12-18T00:16:14;65.80;;;31.00;;
56860;SDS011;42744;51.094;3.490;2022-12-18T00:18:42;65.57;;;31.67;;
56860;SDS011;42744;51.094;3.490;2022-12-18T00:21:08;63.37;;;32.37;;
56860;SDS011;42744;51.094;3.490;2022-12-18T00:23:36;57.47;;;29.20;;
56860;SDS011;42744;51.094;3.490;2022-12-18T00:26:07;65.80;;;32.63;;
56860;SDS011;42744;51.094;3.490;2022-12-18T00:28:36;63.17;;;32.63;;
56860;SDS011;42744;51.094;3.490;2022-12-18T00:31:06;67.23;;;31.93;;
56860;SDS011;42744;51.094;3.490;2022-12-18T00:33:34;61.53;;;31.33;;
56860;SDS011;42744;51.094;3.490;2022-12-18T00:36:02;58.93;;;31.23;;
56860;SDS011;42744;51.094;3.490;2022-12-18T00:38:28;61.53;;;30.83;;
56860;SDS011;42744;51.094;3.490;2022-12-18T00:40:54;60.37;;;30.77;;
56860;SDS011;42744;51.094;3.490;2022-12-18T00:43:20;61.63;;;31.47;;
56860;SDS011;42744;51.094;3.490;2022-12-18T00:45:46;61.37;;;30.97;;
56860;SDS011;42744;51.094;3.490;2022-12-18T00:48:12;58.07;;;30.37;;
56860;SDS011;42744;51.094;3.490;2022-12-18T00:50:38;53.70;;;28.87;;
56860;SDS011;42744;51.094;3.490;2022-12-18T00:53:04;59.23;;;30.23;;
56860;SDS011;42744;51.094;3.490;2022-12-18T00:55:31;59.73;;;31.60;;
56860;SDS011;42744;51.094;3.490;2022-12-18T00:57:57;62.97;;;32.00;;
56860;SDS011;42744;51.094;3.490;2022-12-18T01:00:23;57.70;;;30.70;;
56860;SDS011;42744;51.094;3.490;2022-12-18T01:02:49;57.93;;;30.23;;
56860;SDS011;42744;51.094;3.490;2022-12-18T01:05:15;55.97;;;30.13;;
56860;SDS011;42744;51.094;3.490;2022-12-18T01:07:41;54.90;;;29.83;;
56860;SDS011;42744;51.094;3.490;2022-12-18T01:10:09;51.40;;;27.77;;
56860;SDS011;42744;51.094;3.490;2022-12-18T01:12:36;56.20;;;29.00;;
56860;SDS011;42744;51.094;3.490;2022-12-18T01:15:03;62.87;;;29.97;;
56860;SDS011;42744;51.094;3.490;2022-12-18T01:17:30;55.30;;;28.57;;
56860;SDS011;42744;51.094;3.490;2022-12-18T01:19:56;55.73;;;28.67;;
56860;SDS011;42744;51.094;3.490;2022-12-18T01:22:22;60.30;;;28.83;;
56860;SDS011;42744;51.094;3.490;2022-12-18T01:24:48;52.70;;;28.57;;
56860;SDS011;42744;51.094;3.490;2022-12-18T01:27:14;57.43;;;28.57;;
56860;SDS011;42744;51.094;3.490;2022-12-18T01:29:40;58.00;;;27.63;;
56860;SDS011;42744;51.094;3.490;2022-12-18T01:32:06;54.43;;;27.47;;
56860;SDS011;42744;51.094;3.490;2022-12-18T01:34:33;53.80;;;27.17;;
56860;SDS011;42744;51.094;3.490;2022-12-18T01:37:03;52.53;;;27.67;;
56860;SDS011;42744;51.094;3.490;2022-12-18T01:39:30;56.67;;;28.57;;
56860;SDS011;42744;51.094;3.490;2022-12-18T01:42:00;46.57;;;26.37;;
56860;SDS011;42744;51.094;3.490;2022-12-18T01:50:07;53.73;;;28.00;;
56860;SDS011;42744;51.094;3.490;2022-12-18T01:52:56;55.00;;;27.30;;
56860;SDS011;42744;51.094;3.490;2022-12-18T01:55:26;49.90;;;27.13;;
56860;SDS011;42744;51.094;3.490;2022-12-18T01:57:57;57.53;;;28.43;;
56860;SDS011;42744;51.094;3.490;2022-12-18T02:00:25;56.53;;;29.30;;
56860;SDS011;42744;51.094;3.490;2022-12-18T02:02:54;54.50;;;28.60;;
56860;SDS011;42744;51.094;3.490;2022-12-18T02:06:21;57.60;;;28.63;;
56860;SDS011;42744;51.094;3.490;2022-12-18T02:08:37;54.80;;;27.93;;
56860;SDS011;42744;51.094;3.490;2022-12-18T02:17:11;48.63;;;25.77;;
56860;SDS011;42744;51.094;3.490;2022-12-18T02:27:54;59.30;;;28.43;;
56860;SDS011;42744;51.094;3.490;2022-12-18T02:30:24;51.33;;;28.63;;
56860;SDS011;42744;51.094;3.490;2022-12-18T02:32:55;57.83;;;29.30;;
56860;SDS011;42744;51.094;3.490;2022-12-18T02:35:23;58.40;;;28.27;;
56860;SDS011;42744;51.094;3.490;2022-12-18T02:37:53;55.03;;;27.60;;
56860;SDS011;42744;51.094;3.490;2022-12-18T02:40:20;56.33;;;28.57;;
56860;SDS011;42744;51.094;3.490;2022-12-18T02:42:49;58.80;;;29.27;;
56860;SDS011;42744;51.094;3.490;2022-12-18T02:45:15;54.17;;;29.20;;
56860;SDS011;42744;51.094;3.490;2022-12-18T02:47:43;53.47;;;28.70;;
56860;SDS011;42744;51.094;3.490;2022-12-18T03:03:43;56.90;;;29.73;;
56860;SDS011;42744;51.094;3.490;2022-12-18T03:06:18;57.73;;;29.93;;
56860;SDS011;42744;51.094;3.490;2022-12-18T03:08:55;58.97;;;28.80;;
56860;SDS011;42744;51.094;3.490;2022-12-18T03:11:24;57.23;;;28.27;;
56860;SDS011;42744;51.094;3.490;2022-12-18T03:14:12;55.90;;;27.93;;
56860;SDS011;42744;51.094;3.490;2022-12-18T03:16:42;55.87;;;29.40;;
56860;SDS011;42744;51.094;3.490;2022-12-18T03:19:11;57.43;;;29.73;;
56860;SDS011;42744;51.094;3.490;2022-12-18T03:21:43;64.13;;;31.00;;
56860;SDS011;42744;51.094;3.490;2022-12-18T03:24:17;59.30;;;31.50;;
56860;SDS011;42744;51.094;3.490;2022-12-18T03:26:46;56.77;;;28.77;;
56860;SDS011;42744;51.094;3.490;2022-12-18T03:29:59;57.37;;;29.73;;
56860;SDS011;42744;51.094;3.490;2022-12-18T03:32:19;54.90;;;29.83;;
56860;SDS011;42744;51.094;3.490;2022-12-18T03:34:51;57.33;;;30.07;;
56860;SDS011;42744;51.094;3.490;2022-12-18T03:37:23;55.17;;;30.30;;
56860;SDS011;42744;51.094;3.490;2022-12-18T03:39:50;58.63;;;29.97;;
56860;SDS011;42744;51.094;3.490;2022-12-18T03:42:30;62.97;;;31.60;;
56860;SDS011;42744;51.094;3.490;2022-12-18T03:50:31;63.63;;;33.50;;
56860;SDS011;42744;51.094;3.490;2022-12-18T03:55:52;64.63;;;31.37;;
56860;SDS011;42744;51.094;3.490;2022-12-18T03:58:20;67.07;;;32.23;;
56860;SDS011;42744;51.094;3.490;2022-12-18T04:00:53;60.30;;;31.87;;
56860;SDS011;42744;51.094;3.490;2022-12-18T04:03:22;67.43;;;33.77;;
56860;SDS011;42744;51.094;3.490;2022-12-18T04:05:50;63.33;;;31.87;;
56860;SDS011;42744;51.094;3.490;2022-12-18T04:08:18;65.93;;;32.87;;
56860;SDS011;42744;51.094;3.490;2022-12-18T04:10:48;66.87;;;32.70;;
56860;SDS011;42744;51.094;3.490;2022-12-18T04:13:21;69.70;;;31.33;;
56860;SDS011;42744;51.094;3.490;2022-12-18T04:15:49;64.23;;;31.23;;
56860;SDS011;42744;51.094;3.490;2022-12-18T04:18:15;65.10;;;30.00;;
56860;SDS011;42744;51.094;3.490;2022-12-18T04:20:42;61.80;;;31.20;;
56860;SDS011;42744;51.094;3.490;2022-12-18T04:23:09;65.40;;;29.83;;
56860;SDS011;42744;51.094;3.490;2022-12-18T04:25:36;60.77;;;29.80;;
56860;SDS011;42744;51.094;3.490;2022-12-18T04:28:03;63.63;;;30.67;;
56860;SDS011;42744;51.094;3.490;2022-12-18T04:30:29;57.80;;;29.37;;
56860;SDS011;42744;51.094;3.490;2022-12-18T04:32:55;55.83;;;30.53;;
56860;SDS011;42744;51.094;3.490;2022-12-18T04:35:21;59.90;;;29.10;;
56860;SDS011;42744;51.094;3.490;2022-12-18T04:37:48;58.10;;;29.67;;
56860;SDS011;42744;51.094;3.490;2022-12-18T04:40:14;60.07;;;29.43;;
56860;SDS011;42744;51.094;3.490;2022-12-18T04:42:40;59.33;;;28.47;;
56860;SDS011;42744;51.094;3.490;2022-12-18T04:45:07;59.47;;;29.93;;
56860;SDS011;42744;51.094;3.490;2022-12-18T04:47:36;62.57;;;28.83;;
56860;SDS011;42744;51.094;3.490;2022-12-18T04:50:02;59.17;;;30.00;;
56860;SDS011;42744;51.094;3.490;2022-12-18T04:52:28;57.30;;;28.33;;
56860;SDS011;42744;51.094;3.490;2022-12-18T04:54:57;57.97;;;27.77;;
56860;SDS011;42744;51.094;3.490;2022-12-18T04:57:23;55.23;;;27.23;;
56860;SDS011;42744;51.094;3.490;2022-12-18T04:59:49;56.10;;;27.70;;
56860;SDS011;42744;51.094;3.490;2022-12-18T05:02:15;60.20;;;28.30;;
56860;SDS011;42744;51.094;3.490;2022-12-18T05:04:41;55.13;;;27.97;;
56860;SDS011;42744;51.094;3.490;2022-12-18T05:07:07;55.40;;;27.87;;
56860;SDS011;42744;51.094;3.490;2022-12-18T05:09:33;54.97;;;27.00;;
56860;SDS011;42744;51.094;3.490;2022-12-18T05:11:59;50.17;;;25.73;;
56860;SDS011;42744;51.094;3.490;2022-12-18T05:14:25;50.57;;;25.20;;
56860;SDS011;42744;51.094;3.490;2022-12-18T05:16:52;52.77;;;25.20;;
56860;SDS011;42744;51.094;3.490;2022-12-18T05:19:21;53.70;;;26.03;;
56860;SDS011;42744;51.094;3.490;2022-12-18T05:21:48;51.17;;;24.07;;
56860;SDS011;42744;51.094;3.490;2022-12-18T05:24:14;51.20;;;24.40;;
56860;SDS011;42744;51.094;3.490;2022-12-18T05:26:40;51.07;;;25.17;;
56860;SDS011;42744;51.094;3.490;2022-12-18T05:29:06;49.03;;;24.17;;
56860;SDS011;42744;51.094;3.490;2022-12-18T05:31:32;49.77;;;24.67;;
56860;SDS011;42744;51.094;3.490;2022-12-18T05:33:57;52.50;;;25.47;;
56860;SDS011;42744;51.094;3.490;2022-12-18T05:36:24;52.50;;;25.67;;
56860;SDS011;42744;51.094;3.490;2022-12-18T05:38:50;53.10;;;25.33;;
56860;SDS011;42744;51.094;3.490;2022-12-18T05:41:16;51.80;;;25.20;;
56860;SDS011;42744;51.094;3.490;2022-12-18T05:43:42;51.00;;;25.77;;
56860;SDS011;42744;51.094;3.490;2022-12-18T05:46:11;54.03;;;27.63;;
56860;SDS011;42744;51.094;3.490;2022-12-18T05:48:38;56.43;;;29.37;;
56860;SDS011;42744;51.094;3.490;2022-12-18T05:51:05;55.03;;;28.93;;
56860;SDS011;42744;51.094;3.490;2022-12-18T05:53:33;55.53;;;27.47;;
56860;SDS011;42744;51.094;3.490;2022-12-18T05:56:01;56.00;;;28.83;;
56860;SDS011;42744;51.094;3.490;2022-12-18T05:58:29;52.33;;;29.30;;
56860;SDS011;42744;51.094;3.490;2022-12-18T06:00:56;57.03;;;27.83;;
56860;SDS011;42744;51.094;3.490;2022-12-18T06:03:22;50.37;;;26.20;;
56860;SDS011;42744;51.094;3.490;2022-12-18T06:05:48;50.30;;;26.03;;
56860;SDS011;42744;51.094;3.490;2022-12-18T06:08:14;49.37;;;24.07;;
56860;SDS011;42744;51.094;3.490;2022-12-18T06:10:41;55.50;;;27.47;;
56860;SDS011;42744;51.094;3.490;2022-12-18T06:13:07;50.30;;;26.97;;
56860;SDS011;42744;51.094;3.490;2022-12-18T06:15:35;56.80;;;28.37;;
56860;SDS011;42744;51.094;3.490;2022-12-18T06:18:02;51.63;;;25.67;;
56860;SDS011;42744;51.094;3.490;2022-12-18T06:20:28;50.57;;;26.07;;
56860;SDS011;42744;51.094;3.490;2022-12-18T06:22:54;56.20;;;30.10;;
56860;SDS011;42744;51.094;3.490;2022-12-18T06:25:21;55.10;;;29.33;;
56860;SDS011;42744;51.094;3.490;2022-12-18T06:27:47;57.03;;;30.23;;
56860;SDS011;42744;51.094;3.490;2022-12-18T06:30:13;56.77;;;29.57;;
56860;SDS011;42744;51.094;3.490;2022-12-18T06:32:39;56.97;;;31.20;;
56860;SDS011;42744;51.094;3.490;2022-12-18T06:35:05;54.57;;;28.03;;
56860;SDS011;42744;51.094;3.490;2022-12-18T06:37:32;51.83;;;27.23;;
56860;SDS011;42744;51.094;3.490;2022-12-18T06:39:58;49.33;;;27.07;;
56860;SDS011;42744;51.094;3.490;2022-12-18T06:42:24;52.60;;;28.17;;
56860;SDS011;42744;51.094;3.490;2022-12-18T06:44:50;55.40;;;30.23;;
56860;SDS011;42744;51.094;3.490;2022-12-18T06:47:17;50.03;;;27.17;;
56860;SDS011;42744;51.094;3.490;2022-12-18T06:49:43;52.67;;;27.73;;
56860;SDS011;42744;51.094;3.490;2022-12-18T06:52:09;51.20;;;25.93;;
56860;SDS011;42744;51.094;3.490;2022-12-18T06:54:35;50.70;;;27.40;;
56860;SDS011;42744;51.094;3.490;2022-12-18T06:57:01;51.13;;;23.87;;
56860;SDS011;42744;51.094;3.490;2022-12-18T06:59:27;47.33;;;23.77;;
56860;SDS011;42744;51.094;3.490;2022-12-18T07:01:54;46.43;;;24.73;;
56860;SDS011;42744;51.094;3.490;2022-12-18T07:04:19;45.57;;;23.87;;
56860;SDS011;42744;51.094;3.490;2022-12-18T07:06:45;40.40;;;20.97;;
56860;SDS011;42744;51.094;3.490;2022-12-18T07:09:12;40.97;;;21.27;;
56860;SDS011;42744;51.094;3.490;2022-12-18T07:11:38;51.00;;;23.63;;
56860;SDS011;42744;51.094;3.490;2022-12-18T07:14:04;46.80;;;23.47;;
56860;SDS011;42744;51.094;3.490;2022-12-18T07:16:30;41.13;;;23.07;;
56860;SDS011;42744;51.094;3.490;2022-12-18T07:18:56;40.83;;;21.97;;
56860;SDS011;42744;51.094;3.490;2022-12-18T07:21:22;41.83;;;21.43;;
56860;SDS011;42744;51.094;3.490;2022-12-18T07:23:49;37.17;;;20.40;;
56860;SDS011;42744;51.094;3.490;2022-12-18T07:26:16;35.33;;;19.07;;
56860;SDS011;42744;51.094;3.490;2022-12-18T07:28:44;34.63;;;18.53;;
56860;SDS011;42744;51.094;3.490;2022-12-18T07:31:11;35.40;;;18.73;;
56860;SDS011;42744;51.094;3.490;2022-12-18T07:33:39;44.60;;;18.63;;
56860;SDS011;42744;51.094;3.490;2022-12-18T07:36:06;35.07;;;17.93;;
56860;SDS011;42744;51.094;3.490;2022-12-18T07:38:36;33.60;;;16.73;;
56860;SDS011;42744;51.094;3.490;2022-12-18T07:41:03;35.97;;;16.87;;
56860;SDS011;42744;51.094;3.490;2022-12-18T07:43:30;32.37;;;15.77;;
56860;SDS011;42744;51.094;3.490;2022-12-18T07:45:56;34.77;;;17.00;;
56860;SDS011;42744;51.094;3.490;2022-12-18T07:48:22;33.33;;;16.10;;
56860;SDS011;42744;51.094;3.490;2022-12-18T07:50:48;30.83;;;15.90;;
56860;SDS011;42744;51.094;3.490;2022-12-18T07:53:15;32.30;;;15.70;;
56860;SDS011;42744;51.094;3.490;2022-12-18T07:55:41;32.90;;;15.17;;
56860;SDS011;42744;51.094;3.490;2022-12-18T07:58:07;29.47;;;16.33;;
56860;SDS011;42744;51.094;3.490;2022-12-18T08:00:34;33.87;;;16.87;;
56860;SDS011;42744;51.094;3.490;2022-12-18T08:03:00;32.03;;;17.40;;
56860;SDS011;42744;51.094;3.490;2022-12-18T08:05:27;32.37;;;17.07;;
56860;SDS011;42744;51.094;3.490;2022-12-18T08:07:53;32.50;;;17.10;;
56860;SDS011;42744;51.094;3.490;2022-12-18T08:10:20;33.27;;;16.23;;
56860;SDS011;42744;51.094;3.490;2022-12-18T08:12:50;29.73;;;15.83;;
56860;SDS011;42744;51.094;3.490;2022-12-18T08:15:16;30.60;;;16.00;;
56860;SDS011;42744;51.094;3.490;2022-12-18T08:17:43;36.70;;;17.03;;
56860;SDS011;42744;51.094;3.490;2022-12-18T08:20:09;28.70;;;16.43;;
56860;SDS011;42744;51.094;3.490;2022-12-18T08:22:35;33.67;;;16.03;;
56860;SDS011;42744;51.094;3.490;2022-12-18T08:25:05;31.73;;;17.10;;
56860;SDS011;42744;51.094;3.490;2022-12-18T08:27:32;31.00;;;16.60;;
56860;SDS011;42744;51.094;3.490;2022-12-18T08:29:58;32.40;;;16.73;;
56860;SDS011;42744;51.094;3.490;2022-12-18T08:32:24;33.03;;;16.40;;
56860;SDS011;42744;51.094;3.490;2022-12-18T08:34:51;31.93;;;15.77;;
56860;SDS011;42744;51.094;3.490;2022-12-18T08:37:17;36.93;;;16.93;;
56860;SDS011;42744;51.094;3.490;2022-12-18T08:39:43;30.10;;;15.63;;
56860;SDS011;42744;51.094;3.490;2022-12-18T08:42:09;28.07;;;16.53;;
56860;SDS011;42744;51.094;3.490;2022-12-18T08:44:54;29.40;;;15.80;;
56860;SDS011;42744;51.094;3.490;2022-12-18T08:47:20;31.80;;;16.73;;
56860;SDS011;42744;51.094;3.490;2022-12-18T08:49:46;33.87;;;17.47;;
56860;SDS011;42744;51.094;3.490;2022-12-18T08:52:12;30.67;;;15.90;;
56860;SDS011;42744;51.094;3.490;2022-12-18T08:54:39;28.13;;;16.70;;
56860;SDS011;42744;51.094;3.490;2022-12-18T08:57:05;29.87;;;16.90;;
56860;SDS011;42744;51.094;3.490;2022-12-18T08:59:32;30.80;;;16.43;;
56860;SDS011;42744;51.094;3.490;2022-12-18T09:01:58;28.03;;;15.40;;
56860;SDS011;42744;51.094;3.490;2022-12-18T09:04:24;30.73;;;16.27;;
56860;SDS011;42744;51.094;3.490;2022-12-18T09:06:51;30.67;;;15.53;;
56860;SDS011;42744;51.094;3.490;2022-12-18T09:09:20;31.37;;;15.73;;
56860;SDS011;42744;51.094;3.490;2022-12-18T09:11:46;28.13;;;14.83;;
56860;SDS011;42744;51.094;3.490;2022-12-18T09:14:13;31.33;;;15.47;;
56860;SDS011;42744;51.094;3.490;2022-12-18T09:16:40;29.57;;;16.27;;
56860;SDS011;42744;51.094;3.490;2022-12-18T09:19:05;28.53;;;16.80;;
56860;SDS011;42744;51.094;3.490;2022-12-18T09:21:33;33.27;;;16.57;;
56860;SDS011;42744;51.094;3.490;2022-12-18T09:24:00;33.50;;;16.23;;
56860;SDS011;42744;51.094;3.490;2022-12-18T09:26:26;31.07;;;15.43;;
56860;SDS011;42744;51.094;3.490;2022-12-18T09:28:53;28.73;;;15.70;;
56860;SDS011;42744;51.094;3.490;2022-12-18T09:31:20;27.63;;;15.33;;
56860;SDS011;42744;51.094;3.490;2022-12-18T09:33:47;27.23;;;15.33;;
56860;SDS011;42744;51.094;3.490;2022-12-18T09:36:14;25.13;;;15.50;;
56860;SDS011;42744;51.094;3.490;2022-12-18T09:38:42;27.00;;;15.33;;
56860;SDS011;42744;51.094;3.490;2022-12-18T09:44:00;32.87;;;15.57;;
56860;SDS011;42744;51.094;3.490;2022-12-18T09:46:36;31.33;;;16.73;;
56860;SDS011;42744;51.094;3.490;2022-12-18T09:49:07;30.10;;;16.80;;
56860;SDS011;42744;51.094;3.490;2022-12-18T09:52:00;29.13;;;16.40;;
56860;SDS011;42744;51.094;3.490;2022-12-18T09:54:40;29.00;;;16.53;;
56860;SDS011;42744;51.094;3.490;2022-12-18T09:57:16;27.97;;;15.50;;
56860;SDS011;42744;51.094;3.490;2022-12-18T09:59:59;26.47;;;15.13;;
56860;SDS011;42744;51.094;3.490;2022-12-18T10:02:53;25.77;;;14.83;;
56860;SDS011;42744;51.094;3.490;2022-12-18T10:05:39;28.23;;;14.43;;
56860;SDS011;42744;51.094;3.490;2022-12-18T10:08:19;24.47;;;14.60;;
56860;SDS011;42744;51.094;3.490;2022-12-18T10:11:00;24.73;;;14.03;;
56860;SDS011;42744;51.094;3.490;2022-12-18T10:13:47;23.73;;;14.07;;
56860;SDS011;42744;51.094;3.490;2022-12-18T10:16:20;26.00;;;14.70;;
56860;SDS011;42744;51.094;3.490;2022-12-18T10:24:45;24.27;;;14.93;;
56860;SDS011;42744;51.094;3.490;2022-12-18T10:27:14;25.37;;;14.43;;
56860;SDS011;42744;51.094;3.490;2022-12-18T10:29:42;23.50;;;13.80;;
56860;SDS011;42744;51.094;3.490;2022-12-18T10:32:17;25.57;;;13.77;;
56860;SDS011;42744;51.094;3.490;2022-12-18T10:34:46;22.00;;;13.37;;
56860;SDS011;42744;51.094;3.490;2022-12-18T10:37:17;22.70;;;13.47;;
56860;SDS011;42744;51.094;3.490;2022-12-18T10:40:07;22.80;;;13.30;;
56860;SDS011;42744;51.094;3.490;2022-12-18T10:42:36;22.47;;;13.23;;
56860;SDS011;42744;51.094;3.490;2022-12-18T10:45:11;20.10;;;12.43;;
56860;SDS011;42744;51.094;3.490;2022-12-18T10:47:43;22.43;;;13.67;;
56860;SDS011;42744;51.094;3.490;2022-12-18T10:50:24;21.47;;;12.50;;
56860;SDS011;42744;51.094;3.490;2022-12-18T10:52:55;22.60;;;14.03;;
56860;SDS011;42744;51.094;3.490;2022-12-18T10:55:27;20.77;;;12.73;;
56860;SDS011;42744;51.094;3.490;2022-12-18T10:58:20;20.47;;;13.10;;
56860;SDS011;42744;51.094;3.490;2022-12-18T11:06:12;24.17;;;13.53;;
56860;SDS011;42744;51.094;3.490;2022-12-18T11:09:00;22.63;;;14.23;;
56860;SDS011;42744;51.094;3.490;2022-12-18T11:11:29;26.57;;;15.20;;
56860;SDS011;42744;51.094;3.490;2022-12-18T11:16:29;27.07;;;14.60;;
56860;SDS011;42744;51.094;3.490;2022-12-18T11:22:00;24.70;;;14.57;;
56860;SDS011;42744;51.094;3.490;2022-12-18T11:24:42;24.03;;;14.13;;
56860;SDS011;42744;51.094;3.490;2022-12-18T11:27:17;28.47;;;14.70;;
56860;SDS011;42744;51.094;3.490;2022-12-18T11:29:44;24.20;;;14.37;;
56860;SDS011;42744;51.094;3.490;2022-12-18T11:32:24;25.20;;;14.53;;
56860;SDS011;42744;51.094;3.490;2022-12-18T11:35:01;23.17;;;14.20;;
56860;SDS011;42744;51.094;3.490;2022-12-18T11:37:38;23.97;;;14.20;;
56860;SDS011;42744;51.094;3.490;2022-12-18T11:40:17;24.90;;;15.73;;
56860;SDS011;42744;51.094;3.490;2022-12-18T11:43:01;28.37;;;15.07;;
56860;SDS011;42744;51.094;3.490;2022-12-18T11:45:29;24.37;;;15.13;;
56860;SDS011;42744;51.094;3.490;2022-12-18T11:48:09;30.47;;;17.60;;
56860;SDS011;42744;51.094;3.490;2022-12-18T11:50:49;25.03;;;15.90;;
56860;SDS011;42744;51.094;3.490;2022-12-18T11:53:20;23.10;;;15.00;;
56860;SDS011;42744;51.094;3.490;2022-12-18T12:12:42;23.80;;;14.77;;
56860;SDS011;42744;51.094;3.490;2022-12-18T12:21:02;24.77;;;15.80;;
56860;SDS011;42744;51.094;3.490;2022-12-18T12:24:05;29.67;;;15.97;;
56860;SDS011;42744;51.094;3.490;2022-12-18T12:29:49;25.27;;;15.03;;
56860;SDS011;42744;51.094;3.490;2022-12-18T12:40:54;26.90;;;17.33;;
56860;SDS011;42744;51.094;3.490;2022-12-18T12:43:35;26.70;;;16.63;;
56860;SDS011;42744;51.094;3.490;2022-12-18T12:46:13;31.73;;;17.03;;
56860;SDS011;42744;51.094;3.490;2022-12-18T12:48:47;28.00;;;17.67;;
56860;SDS011;42744;51.094;3.490;2022-12-18T12:54:15;28.87;;;17.57;;
56860;SDS011;42744;51.094;3.490;2022-12-18T12:56:49;31.23;;;17.27;;
56860;SDS011;42744;51.094;3.490;2022-12-18T13:04:42;31.60;;;17.90;;
56860;SDS011;42744;51.094;3.490;2022-12-18T13:07:27;29.40;;;17.97;;
56860;SDS011;42744;51.094;3.490;2022-12-18T13:20:34;32.93;;;18.90;;
56860;SDS011;42744;51.094;3.490;2022-12-18T13:23:19;32.17;;;18.40;;
56860;SDS011;42744;51.094;3.490;2022-12-18T13:25:45;31.33;;;18.83;;
56860;SDS011;42744;51.094;3.490;2022-12-18T13:38:22;34.73;;;19.60;;
56860;SDS011;42744;51.094;3.490;2022-12-18T13:40:59;38.80;;;20.17;;
56860;SDS011;42744;51.094;3.490;2022-12-18T13:43:43;35.47;;;19.40;;
56860;SDS011;42744;51.094;3.490;2022-12-18T13:48:50;36.83;;;18.40;;
56860;SDS011;42744;51.094;3.490;2022-12-18T13:51:28;33.90;;;19.93;;
56860;SDS011;42744;51.094;3.490;2022-12-18T13:54:02;37.03;;;19.63;;
56860;SDS011;42744;51.094;3.490;2022-12-18T13:56:45;37.30;;;19.13;;
56860;SDS011;42744;51.094;3.490;2022-12-18T13:59:24;42.43;;;21.93;;
56860;SDS011;42744;51.094;3.490;2022-12-18T14:01:55;38.83;;;19.07;;
56860;SDS011;42744;51.094;3.490;2022-12-18T14:04:25;32.30;;;18.60;;
56860;SDS011;42744;51.094;3.490;2022-12-18T14:07:01;35.07;;;20.37;;
56860;SDS011;42744;51.094;3.490;2022-12-18T14:09:50;37.20;;;19.83;;
56860;SDS011;42744;51.094;3.490;2022-12-18T14:12:26;36.17;;;20.40;;
56860;SDS011;42744;51.094;3.490;2022-12-18T14:17:50;33.17;;;18.90;;
56860;SDS011;42744;51.094;3.490;2022-12-18T14:20:18;33.93;;;18.87;;
56860;SDS011;42744;51.094;3.490;2022-12-18T14:22:45;35.13;;;18.97;;
56860;SDS011;42744;51.094;3.490;2022-12-18T14:25:18;37.70;;;20.17;;
56860;SDS011;42744;51.094;3.490;2022-12-18T14:27:49;34.17;;;18.00;;
56860;SDS011;42744;51.094;3.490;2022-12-18T14:30:26;34.30;;;19.37;;
56860;SDS011;42744;51.094;3.490;2022-12-18T14:33:01;35.60;;;19.30;;
56860;SDS011;42744;51.094;3.490;2022-12-18T14:35:30;34.17;;;18.20;;
56860;SDS011;42744;51.094;3.490;2022-12-18T14:40:47;36.37;;;19.77;;
56860;SDS011;42744;51.094;3.490;2022-12-18T14:43:17;32.43;;;18.57;;
56860;SDS011;42744;51.094;3.490;2022-12-18T14:45:44;31.30;;;18.23;;
56860;SDS011;42744;51.094;3.490;2022-12-18T14:50:58;36.40;;;18.90;;
56860;SDS011;42744;51.094;3.490;2022-12-18T14:53:46;35.93;;;19.80;;
56860;SDS011;42744;51.094;3.490;2022-12-18T14:56:20;34.20;;;19.40;;
56860;SDS011;42744;51.094;3.490;2022-12-18T14:58:58;34.00;;;18.93;;
56860;SDS011;42744;51.094;3.490;2022-12-18T15:01:28;38.30;;;20.53;;
56860;SDS011;42744;51.094;3.490;2022-12-18T15:03:58;34.03;;;19.87;;
56860;SDS011;42744;51.094;3.490;2022-12-18T15:06:28;41.60;;;20.67;;
56860;SDS011;42744;51.094;3.490;2022-12-18T15:08:57;35.47;;;17.93;;
56860;SDS011;42744;51.094;3.490;2022-12-18T15:11:32;34.20;;;20.40;;
56860;SDS011;42744;51.094;3.490;2022-12-18T15:14:00;35.77;;;19.83;;
56860;SDS011;42744;51.094;3.490;2022-12-18T15:16:49;36.60;;;19.63;;
56860;SDS011;42744;51.094;3.490;2022-12-18T15:19:17;37.87;;;20.00;;
56860;SDS011;42744;51.094;3.490;2022-12-18T15:21:45;37.07;;;20.60;;
56860;SDS011;42744;51.094;3.490;2022-12-18T15:24:26;35.80;;;21.03;;
56860;SDS011;42744;51.094;3.490;2022-12-18T15:26:55;36.73;;;19.73;;
56860;SDS011;42744;51.094;3.490;2022-12-18T15:29:22;41.57;;;22.40;;
56860;SDS011;42744;51.094;3.490;2022-12-18T15:32:01;36.57;;;19.60;;
56860;SDS011;42744;51.094;3.490;2022-12-18T15:34:30;35.40;;;19.83;;
56860;SDS011;42744;51.094;3.490;2022-12-18T15:36:57;34.93;;;20.27;;
56860;SDS011;42744;51.094;3.490;2022-12-18T15:39:23;35.17;;;19.40;;
56860;SDS011;42744;51.094;3.490;2022-12-18T15:41:49;35.97;;;20.17;;
56860;SDS011;42744;51.094;3.490;2022-12-18T15:44:34;37.10;;;21.83;;
56860;SDS011;42744;51.094;3.490;2022-12-18T15:47:00;35.67;;;19.43;;
56860;SDS011;42744;51.094;3.490;2022-12-18T15:49:27;37.33;;;21.47;;
56860;SDS011;42744;51.094;3.490;2022-12-18T15:51:57;41.53;;;22.50;;
56860;SDS011;42744;51.094;3.490;2022-12-18T15:54:25;32.57;;;18.70;;
56860;SDS011;42744;51.094;3.490;2022-12-18T15:57:13;40.10;;;21.10;;
56860;SDS011;42744;51.094;3.490;2022-12-18T15:59:49;38.60;;;20.67;;
56860;SDS011;42744;51.094;3.490;2022-12-18T16:02:18;34.93;;;18.63;;
56860;SDS011;42744;51.094;3.490;2022-12-18T16:04:45;35.03;;;18.83;;
56860;SDS011;42744;51.094;3.490;2022-12-18T16:07:11;34.50;;;19.43;;
56860;SDS011;42744;51.094;3.490;2022-12-18T16:09:37;36.67;;;18.43;;
56860;SDS011;42744;51.094;3.490;2022-12-18T16:12:04;35.77;;;17.90;;
56860;SDS011;42744;51.094;3.490;2022-12-18T16:14:32;38.43;;;19.17;;
56860;SDS011;42744;51.094;3.490;2022-12-18T16:16:59;35.77;;;19.23;;
56860;SDS011;42744;51.094;3.490;2022-12-18T16:19:27;34.80;;;18.27;;
56860;SDS011;42744;51.094;3.490;2022-12-18T16:21:54;37.67;;;19.53;;
56860;SDS011;42744;51.094;3.490;2022-12-18T16:24:25;36.53;;;19.07;;
56860;SDS011;42744;51.094;3.490;2022-12-18T16:26:54;33.33;;;18.30;;
56860;SDS011;42744;51.094;3.490;2022-12-18T16:29:23;37.83;;;19.33;;
56860;SDS011;42744;51.094;3.490;2022-12-18T16:31:55;34.83;;;18.67;;
56860;SDS011;42744;51.094;3.490;2022-12-18T16:34:23;38.17;;;18.90;;
56860;SDS011;42744;51.094;3.490;2022-12-18T16:36:58;34.83;;;18.07;;
56860;SDS011;42744;51.094;3.490;2022-12-18T16:39:26;39.17;;;20.10;;
56860;SDS011;42744;51.094;3.490;2022-12-18T16:41:52;34.90;;;18.93;;
56860;SDS011;42744;51.094;3.490;2022-12-18T16:44:18;33.63;;;17.53;;
56860;SDS011;42744;51.094;3.490;2022-12-18T16:46:45;37.73;;;18.00;;
56860;SDS011;42744;51.094;3.490;2022-12-18T16:49:12;33.47;;;18.53;;
56860;SDS011;42744;51.094;3.490;2022-12-18T16:51:40;39.67;;;19.80;;
56860;SDS011;42744;51.094;3.490;2022-12-18T16:54:06;40.33;;;19.63;;